createdAt,value
2022-08-26T00:01:24.342Z,15.13
2022-08-26T00:03:56.580Z,14.27
2022-08-26T00:06:23.349Z,13.95
2022-08-26T00:08:50.174Z,14.70
2022-08-26T00:11:26.749Z,12.90
2022-08-26T00:13:57.337Z,13.88
2022-08-26T00:16:27.007Z,13.52
2022-08-26T00:18:54.305Z,12.25
2022-08-26T00:21:21.220Z,13.35
2022-08-26T00:23:48.464Z,14.40
2022-08-26T00:26:15.406Z,14.27
2022-08-26T00:28:42.398Z,13.50
2022-08-26T00:31:11.134Z,13.88
2022-08-26T00:33:41.196Z,13.70
2022-08-26T00:36:09.398Z,13.55
2022-08-26T00:38:46.861Z,13.63
2022-08-26T00:41:13.718Z,13.40
2022-08-26T00:43:47.485Z,14.77
2022-08-26T00:46:19.648Z,14.70
2022-08-26T00:48:50.021Z,15.57
2022-08-26T00:51:24.504Z,13.80
2022-08-26T00:54:05.414Z,14.43
2022-08-26T00:56:38.134Z,14.77
2022-08-26T00:59:13.246Z,13.23
2022-08-26T01:01:42.700Z,13.60
2022-08-26T01:04:17.580Z,13.75
2022-08-26T01:06:45.349Z,14.75
2022-08-26T01:09:12.488Z,13.35
2022-08-26T01:11:39.676Z,14.38
2022-08-26T01:14:07.912Z,14.70
2022-08-26T01:16:35.866Z,12.63
2022-08-26T01:19:28.638Z,14.68
2022-08-26T01:22:18.486Z,15.38
2022-08-26T01:24:46.053Z,15.30
2022-08-26T01:27:18.170Z,14.02
2022-08-26T01:29:48.737Z,14.32
2022-08-26T01:32:22.104Z,15.15
2022-08-26T01:34:50.309Z,15.80
2022-08-26T01:37:20.147Z,15.65
2022-08-26T01:39:52.021Z,13.57
2022-08-26T01:42:20.877Z,15.45
2022-08-26T01:45:19.870Z,14.93
2022-08-26T01:47:49.740Z,16.05
2022-08-26T01:50:30.225Z,14.80
2022-08-26T01:53:01.848Z,13.23
2022-08-26T01:55:33.490Z,13.35
2022-08-26T01:58:06.185Z,15.88
2022-08-26T02:00:34.891Z,16.23
2022-08-26T02:03:17.660Z,13.57
2022-08-26T02:05:48.755Z,15.35
2022-08-26T02:08:22.721Z,13.13
2022-08-26T02:10:51.850Z,14.90
2022-08-26T02:13:23.026Z,15.45
2022-08-26T02:15:52.261Z,14.50
2022-08-26T02:18:19.330Z,14.93
2022-08-26T02:20:46.201Z,15.77
2022-08-26T02:23:12.899Z,15.73
2022-08-26T02:25:51.856Z,14.93
2022-08-26T02:28:19.793Z,13.68
2022-08-26T02:30:47.253Z,14.52
2022-08-26T02:33:14.380Z,14.40
2022-08-26T02:35:41.265Z,14.82
2022-08-26T02:38:11.086Z,15.85
2022-08-26T02:40:40.930Z,17.20
2022-08-26T02:43:08.954Z,16.30
2022-08-26T02:45:36.049Z,14.85
2022-08-26T02:48:12.362Z,14.70
2022-08-26T02:50:39.325Z,13.15
2022-08-26T02:53:08.976Z,15.15
2022-08-26T02:55:36.664Z,15.73
2022-08-26T02:58:04.463Z,14.90
2022-08-26T03:00:31.785Z,14.30
2022-08-26T03:02:59.675Z,14.85
2022-08-26T03:05:26.546Z,15.57
2022-08-26T03:07:53.269Z,12.60
2022-08-26T03:10:21.793Z,14.75
2022-08-26T03:12:48.549Z,15.40
2022-08-26T03:15:18.462Z,16.95
2022-08-26T03:17:47.331Z,14.77
2022-08-26T03:20:15.529Z,16.30
2022-08-26T03:22:44.394Z,15.43
2022-08-26T03:25:14.230Z,14.57
2022-08-26T03:27:41.741Z,15.60
2022-08-26T03:30:29.546Z,16.85
2022-08-26T03:32:56.729Z,16.00
2022-08-26T03:35:23.409Z,15.45
2022-08-26T03:37:50.032Z,15.00
2022-08-26T03:40:20.315Z,16.10
2022-08-26T03:42:48.108Z,17.08
2022-08-26T03:45:16.925Z,15.38
2022-08-26T03:47:44.527Z,17.33
2022-08-26T03:50:14.084Z,15.40
2022-08-26T03:52:43.927Z,15.77
2022-08-26T03:57:37.616Z,14.35
2022-08-26T04:00:06.690Z,16.67
2022-08-26T04:02:33.400Z,15.57
2022-08-26T04:05:00.168Z,15.55
2022-08-26T04:07:26.948Z,17.60
2022-08-26T04:09:57.912Z,16.25
2022-08-26T04:12:25.561Z,18.25
2022-08-26T04:14:53.582Z,17.67
2022-08-26T04:17:24.991Z,18.05
2022-08-26T04:19:55.116Z,17.65
2022-08-26T04:22:24.912Z,18.73
2022-08-26T04:24:51.879Z,17.50
2022-08-26T04:27:19.078Z,18.38
2022-08-26T04:29:46.576Z,19.88
2022-08-26T04:32:14.836Z,17.48
2022-08-26T04:34:43.995Z,18.27
2022-08-26T04:37:11.878Z,18.42
2022-08-26T04:39:38.620Z,18.02
2022-08-26T04:42:05.980Z,19.50
2022-08-26T04:44:35.904Z,17.55
2022-08-26T04:47:02.995Z,18.08
2022-08-26T04:49:35.398Z,19.48
2022-08-26T04:52:03.321Z,17.80
2022-08-26T04:54:31.485Z,20.25
2022-08-26T04:56:58.229Z,18.90
2022-08-26T04:59:25.087Z,20.88
2022-08-26T05:01:53.925Z,17.75
2022-08-26T05:04:21.037Z,18.75
2022-08-26T05:06:48.397Z,18.80
2022-08-26T05:09:16.450Z,18.95
2022-08-26T05:11:43.290Z,19.98
2022-08-26T05:14:10.079Z,19.77
2022-08-26T05:16:37.635Z,19.45
2022-08-26T05:19:08.421Z,18.30
2022-08-26T05:21:35.924Z,18.92
2022-08-26T05:24:02.873Z,19.88
2022-08-26T05:26:31.116Z,19.80
2022-08-26T05:28:58.336Z,18.30
2022-08-26T05:31:29.014Z,16.67
2022-08-26T05:33:57.683Z,18.73
2022-08-26T05:36:27.536Z,18.27
2022-08-26T05:38:55.439Z,18.25
2022-08-26T05:41:36.173Z,20.40
2022-08-26T05:44:06.004Z,19.02
2022-08-26T05:46:33.474Z,19.60
2022-08-26T05:49:01.736Z,18.77
2022-08-26T05:51:30.365Z,19.33
2022-08-26T05:53:58.168Z,19.92
2022-08-26T05:56:26.147Z,19.02
2022-08-26T05:58:53.402Z,18.60
2022-08-26T06:01:23.721Z,19.27
2022-08-26T06:03:52.340Z,18.48
2022-08-26T06:06:29.809Z,18.67
2022-08-26T06:08:59.157Z,19.23
2022-08-26T06:11:27.676Z,19.07
2022-08-26T06:13:58.990Z,17.77
2022-08-26T06:16:27.134Z,18.88
2022-08-26T06:18:54.226Z,19.58
2022-08-26T06:21:25.929Z,18.52
2022-08-26T06:24:13.746Z,19.83
2022-08-26T06:26:42.742Z,19.30
2022-08-26T06:29:09.782Z,20.15
2022-08-26T06:31:37.168Z,19.30
2022-08-26T06:36:39.459Z,19.60
2022-08-26T06:39:10.255Z,21.17
2022-08-26T06:41:43.148Z,18.67
2022-08-26T06:44:10.611Z,19.88
2022-08-26T06:46:37.853Z,17.77
2022-08-26T06:49:05.593Z,19.33
2022-08-26T06:51:35.188Z,18.55
2022-08-26T06:54:03.434Z,17.95
2022-08-26T06:56:36.880Z,19.75
2022-08-26T06:59:04.651Z,18.60
2022-08-26T07:01:38.798Z,17.42
2022-08-26T07:04:10.945Z,18.60
2022-08-26T07:06:40.589Z,18.15
2022-08-26T07:09:09.954Z,18.63
2022-08-26T07:11:38.572Z,18.90
2022-08-26T07:14:06.185Z,17.48
2022-08-26T07:16:33.400Z,16.90
2022-08-26T07:19:01.167Z,17.80
2022-08-26T07:24:01.341Z,17.13
2022-08-26T07:26:30.680Z,18.10
2022-08-26T07:28:58.574Z,17.00
2022-08-26T07:31:27.854Z,19.58
2022-08-26T07:33:56.856Z,18.52
2022-08-26T07:36:24.591Z,16.70
2022-08-26T07:38:52.704Z,16.85
2022-08-26T07:41:22.955Z,17.98
2022-08-26T07:43:50.678Z,16.95
2022-08-26T07:46:20.825Z,17.00
2022-08-26T07:48:54.630Z,16.73
2022-08-26T07:51:22.976Z,17.15
2022-08-26T07:53:52.311Z,16.67
2022-08-26T07:58:50.945Z,15.75
2022-08-26T08:01:26.934Z,15.13
2022-08-26T08:03:55.064Z,14.13
2022-08-26T08:06:27.235Z,13.98
2022-08-26T08:08:54.395Z,14.80
2022-08-26T08:11:21.651Z,13.80
2022-08-26T08:13:49.012Z,15.68
2022-08-26T08:16:15.798Z,15.75
2022-08-26T08:18:42.449Z,15.48
2022-08-26T08:21:21.913Z,16.20
2022-08-26T08:23:58.849Z,14.60
2022-08-26T08:26:39.933Z,15.10
2022-08-26T08:29:08.762Z,11.90
2022-08-26T08:31:56.964Z,13.60
2022-08-26T08:34:30.973Z,13.75
2022-08-26T08:37:07.354Z,12.60
2022-08-26T08:39:42.926Z,12.53
2022-08-26T08:43:00.946Z,10.82
2022-08-26T08:45:53.995Z,10.77
2022-08-26T08:48:39.884Z,8.88
2022-08-26T08:51:20.897Z,9.35
2022-08-26T08:53:49.616Z,9.95
2022-08-26T08:56:53.854Z,10.48
2022-08-26T08:59:47.522Z,9.77
2022-08-26T09:02:31.921Z,10.98
2022-08-26T09:05:05.272Z,9.52
2022-08-26T09:07:54.864Z,9.55
2022-08-26T09:10:33.977Z,8.70
2022-08-26T09:13:06.250Z,9.50
2022-08-26T09:15:58.630Z,11.25
2022-08-26T09:18:54.605Z,9.60
2022-08-26T09:21:25.242Z,9.80
2022-08-26T09:23:55.388Z,9.20
2022-08-26T09:26:29.166Z,9.88
2022-08-26T09:29:03.413Z,8.95
2022-08-26T09:31:34.183Z,9.45
2022-08-26T09:34:17.997Z,8.52
2022-08-26T09:36:55.084Z,9.07
2022-08-26T09:39:24.952Z,8.25
2022-08-26T09:44:57.326Z,8.63
2022-08-26T09:47:31.991Z,9.23
2022-08-26T09:50:12.392Z,8.80
2022-08-26T09:52:40.501Z,8.32
2022-08-26T09:55:21.086Z,8.38
2022-08-26T09:57:54.014Z,7.72
2022-08-26T10:00:26.338Z,7.30
2022-08-26T10:02:56.129Z,8.68
2022-08-26T10:05:58.456Z,7.60
2022-08-26T10:08:31.874Z,8.75
2022-08-26T10:11:02.564Z,8.05
2022-08-26T10:13:37.552Z,8.45
2022-08-26T10:16:18.775Z,9.20
2022-08-26T10:19:06.447Z,8.63
2022-08-26T10:21:38.954Z,9.45
2022-08-26T10:24:07.419Z,7.97
2022-08-26T10:27:10.523Z,9.35
2022-08-26T10:29:42.607Z,10.20
2022-08-26T10:32:37.420Z,10.02
2022-08-26T10:35:12.476Z,9.80
2022-08-26T10:37:45.751Z,8.93
2022-08-26T10:40:51.792Z,9.07
2022-08-26T10:43:27.262Z,9.30
2022-08-26T10:46:17.175Z,10.05
2022-08-26T10:48:53.801Z,9.77
2022-08-26T10:51:26.854Z,9.68
2022-08-26T10:54:24.145Z,9.93
2022-08-26T10:57:19.360Z,10.90
2022-08-26T10:59:56.461Z,10.18
2022-08-26T11:02:33.496Z,9.15
2022-08-26T11:05:06.072Z,10.80
2022-08-26T11:08:19.933Z,10.75
2022-08-26T11:10:55.310Z,9.73
2022-08-26T11:13:58.171Z,9.75
2022-08-26T11:16:43.709Z,9.73
2022-08-26T11:19:56.732Z,9.27
2022-08-26T11:25:18.211Z,9.02
2022-08-26T11:27:48.170Z,9.77
2022-08-26T11:30:15.906Z,9.18
2022-08-26T11:32:49.754Z,10.38
2022-08-26T11:35:19.782Z,9.35
2022-08-26T11:38:22.789Z,9.85
2022-08-26T11:41:10.124Z,9.85
2022-08-26T11:43:38.696Z,9.60
2022-08-26T11:46:09.176Z,9.40
2022-08-26T11:48:43.382Z,9.07
2022-08-26T11:51:24.567Z,8.85
2022-08-26T11:53:51.409Z,8.32
2022-08-26T11:56:28.855Z,8.20
2022-08-26T11:59:01.973Z,8.85
2022-08-26T12:01:35.752Z,8.25
2022-08-26T12:04:08.158Z,8.77
2022-08-26T12:06:45.100Z,7.82
2022-08-26T12:09:22.660Z,7.90
2022-08-26T12:11:49.690Z,7.82
2022-08-26T12:14:24.319Z,8.57
2022-08-26T12:16:54.021Z,7.18
2022-08-26T12:22:24.602Z,7.43
2022-08-26T12:24:56.766Z,7.22
2022-08-26T12:27:32.554Z,8.10
2022-08-26T12:30:14.028Z,6.82
2022-08-26T12:33:22.470Z,7.45
2022-08-26T12:35:54.316Z,7.50
2022-08-26T12:38:25.197Z,7.82
2022-08-26T12:40:52.393Z,9.25
2022-08-26T12:43:43.428Z,8.05
2022-08-26T12:46:29.508Z,8.57
2022-08-26T12:49:01.122Z,8.05
2022-08-26T12:51:30.788Z,6.40
2022-08-26T12:53:58.411Z,5.63
2022-08-26T12:56:39.432Z,5.03
2022-08-26T12:59:24.414Z,4.22
2022-08-26T13:01:51.976Z,4.05
2022-08-26T13:04:41.922Z,3.83
2022-08-26T13:07:26.353Z,3.92
2022-08-26T13:09:58.761Z,5.03
2022-08-26T13:12:31.907Z,4.55
2022-08-26T13:15:00.096Z,4.97
2022-08-26T13:17:28.342Z,4.35
2022-08-26T13:19:58.022Z,4.65
2022-08-26T13:22:26.902Z,5.25
2022-08-26T13:24:56.612Z,5.30
2022-08-26T13:27:26.251Z,5.05
2022-08-26T13:29:53.952Z,5.22
2022-08-26T13:32:22.598Z,5.75
2022-08-26T13:34:56.339Z,5.60
2022-08-26T13:37:34.076Z,5.47
2022-08-26T13:40:01.869Z,5.80
2022-08-26T13:42:29.311Z,6.45
2022-08-26T13:44:58.129Z,6.53
2022-08-26T13:47:25.960Z,6.15
2022-08-26T13:49:54.611Z,5.97
2022-08-26T13:52:30.888Z,6.88
2022-08-26T13:54:59.140Z,6.57
2022-08-26T13:57:27.959Z,6.90
2022-08-26T13:59:56.480Z,6.47
2022-08-26T14:02:23.297Z,6.00
2022-08-26T14:04:50.142Z,6.65
2022-08-26T14:07:16.795Z,6.50
2022-08-26T14:09:43.453Z,6.40
2022-08-26T14:12:10.098Z,5.88
2022-08-26T14:14:36.730Z,6.38
2022-08-26T14:17:03.661Z,6.50
2022-08-26T14:19:31.238Z,6.57
2022-08-26T14:22:00.697Z,6.72
2022-08-26T14:24:28.816Z,6.28
2022-08-26T14:26:55.656Z,5.93
2022-08-26T14:29:22.408Z,5.88
2022-08-26T14:31:49.175Z,5.82
2022-08-26T14:34:16.055Z,6.28
2022-08-26T14:36:43.415Z,6.03
2022-08-26T14:39:12.089Z,7.07
2022-08-26T14:41:45.854Z,6.97
2022-08-26T14:44:21.458Z,7.00
2022-08-26T14:46:50.257Z,7.68
2022-08-26T14:49:18.308Z,7.03
2022-08-26T14:51:45.382Z,6.85
2022-08-26T14:54:13.045Z,7.25
2022-08-26T14:56:53.774Z,6.68
2022-08-26T14:59:42.194Z,7.40
2022-08-26T15:02:13.586Z,7.47
2022-08-26T15:04:41.658Z,6.85
2022-08-26T15:07:12.597Z,7.30
2022-08-26T15:09:39.609Z,6.85
2022-08-26T15:12:06.638Z,6.47
2022-08-26T15:14:33.358Z,6.35
2022-08-26T15:17:00.229Z,6.43
2022-08-26T15:19:27.525Z,6.30
2022-08-26T15:22:00.224Z,6.05
2022-08-26T15:24:28.872Z,6.22
2022-08-26T15:26:55.710Z,6.10
2022-08-26T15:29:24.017Z,6.65
2022-08-26T15:31:51.168Z,7.07
2022-08-26T15:34:18.408Z,6.97
2022-08-26T15:36:46.746Z,7.60
2022-08-26T15:39:15.334Z,7.13
2022-08-26T15:41:42.001Z,7.05
2022-08-26T15:44:10.296Z,6.13
2022-08-26T15:46:38.361Z,6.80
2022-08-26T15:49:06.347Z,6.55
2022-08-26T15:51:45.859Z,6.97
2022-08-26T15:54:13.473Z,6.80
2022-08-26T15:56:40.187Z,6.95
2022-08-26T15:59:08.043Z,7.50
2022-08-26T16:01:35.762Z,8.18
2022-08-26T16:04:02.937Z,8.90
2022-08-26T16:06:32.128Z,8.32
2022-08-26T16:08:59.604Z,8.60
2022-08-26T16:11:27.148Z,8.73
2022-08-26T16:13:54.004Z,8.65
2022-08-26T16:16:21.502Z,9.35
2022-08-26T16:18:48.504Z,9.35
2022-08-26T16:21:22.242Z,8.02
2022-08-26T16:23:49.410Z,9.90
2022-08-26T16:26:19.706Z,9.82
2022-08-26T16:28:47.423Z,8.85
2022-08-26T16:31:14.793Z,8.25
2022-08-26T16:33:41.729Z,9.60
2022-08-26T16:36:09.575Z,9.32
2022-08-26T16:38:37.597Z,8.90
2022-08-26T16:41:05.179Z,9.65
2022-08-26T16:43:31.996Z,9.88
2022-08-26T16:45:58.738Z,11.18
2022-08-26T16:48:26.740Z,11.05
2022-08-26T16:50:55.600Z,9.77
2022-08-26T16:53:23.294Z,10.52
2022-08-26T16:55:51.203Z,10.82
2022-08-26T16:58:21.071Z,11.70
2022-08-26T17:00:49.053Z,9.30
2022-08-26T17:03:15.952Z,9.98
2022-08-26T17:05:42.659Z,11.98
2022-08-26T17:08:09.543Z,12.82
2022-08-26T17:10:36.287Z,12.35
2022-08-26T17:13:03.120Z,12.10
2022-08-26T17:15:30.042Z,13.13
2022-08-26T17:17:57.141Z,12.15
2022-08-26T17:20:25.116Z,12.55
2022-08-26T17:22:53.736Z,12.10
2022-08-26T17:25:26.912Z,13.52
2022-08-26T17:27:54.117Z,11.57
2022-08-26T17:30:22.541Z,12.32
2022-08-26T17:32:49.207Z,12.13
2022-08-26T17:35:16.803Z,12.25
2022-08-26T17:37:44.350Z,11.32
2022-08-26T17:40:15.489Z,9.93
2022-08-26T17:42:42.340Z,11.80
2022-08-26T17:45:09.907Z,10.05
2022-08-26T17:47:36.718Z,10.55
2022-08-26T17:50:05.699Z,10.80
2022-08-26T17:52:32.579Z,11.20
2022-08-26T17:54:59.355Z,12.70
2022-08-26T17:57:27.068Z,12.57
2022-08-26T17:59:54.317Z,13.70
2022-08-26T18:02:21.672Z,12.40
2022-08-26T18:04:48.605Z,13.32
2022-08-26T18:07:15.879Z,12.40
2022-08-26T18:09:43.121Z,12.15
2022-08-26T18:12:10.620Z,11.07
2022-08-26T18:14:37.761Z,12.30
2022-08-26T18:17:04.716Z,11.40
2022-08-26T18:19:31.500Z,11.98
2022-08-26T18:21:58.557Z,12.35
2022-08-26T18:24:25.329Z,11.82
2022-08-26T18:26:52.021Z,10.93
2022-08-26T18:29:19.786Z,10.88
2022-08-26T18:31:46.569Z,11.05
2022-08-26T18:34:15.496Z,9.93
2022-08-26T18:36:42.862Z,10.10
2022-08-26T18:39:10.701Z,10.35
2022-08-26T18:41:47.020Z,11.77
2022-08-26T18:44:16.374Z,10.77
2022-08-26T18:46:45.085Z,11.70
2022-08-26T18:49:13.868Z,10.85
2022-08-26T18:51:41.397Z,11.27
2022-08-26T18:54:08.554Z,10.60
2022-08-26T18:56:37.165Z,12.70
2022-08-26T18:59:06.141Z,11.90
2022-08-26T19:01:34.174Z,11.80
2022-08-26T19:04:02.877Z,13.00
2022-08-26T19:06:32.842Z,11.70
2022-08-26T19:09:00.478Z,11.20
2022-08-26T19:11:31.556Z,13.13
2022-08-26T19:14:00.317Z,12.25
2022-08-26T19:16:27.980Z,11.65
2022-08-26T19:18:56.180Z,11.95
2022-08-26T19:21:23.564Z,12.93
2022-08-26T19:23:51.086Z,13.55
2022-08-26T19:26:18.554Z,14.05
2022-08-26T19:28:45.325Z,14.43
2022-08-26T19:31:12.374Z,13.07
2022-08-26T19:33:41.819Z,12.80
2022-08-26T19:36:14.839Z,14.30
2022-08-26T19:38:42.748Z,12.38
2022-08-26T19:41:18.992Z,12.57
2022-08-26T19:43:46.235Z,12.13
2022-08-26T19:46:18.002Z,14.07
2022-08-26T19:48:45.581Z,13.45
2022-08-26T19:51:27.318Z,13.15
2022-08-26T19:53:57.376Z,13.80
2022-08-26T19:56:24.888Z,12.88
2022-08-26T19:58:51.948Z,14.25
2022-08-26T20:01:19.329Z,15.27
2022-08-26T20:03:46.342Z,14.40
2022-08-26T20:06:15.247Z,15.77
2022-08-26T20:08:43.003Z,14.52
2022-08-26T20:11:14.579Z,14.85
2022-08-26T20:13:42.440Z,13.73
2022-08-26T20:16:13.157Z,13.93
2022-08-26T20:19:00.709Z,14.35
2022-08-26T20:21:29.373Z,12.38
2022-08-26T20:24:08.438Z,15.63
2022-08-26T20:26:37.599Z,15.80
2022-08-26T20:29:05.297Z,15.95
2022-08-26T20:31:32.429Z,15.73
2022-08-26T20:33:59.138Z,15.77
2022-08-26T20:36:29.774Z,15.45
2022-08-26T20:38:57.449Z,15.93
2022-08-26T20:41:25.620Z,14.70
2022-08-26T20:43:56.105Z,15.65
2022-08-26T20:46:25.023Z,17.45
2022-08-26T20:48:53.079Z,15.85
2022-08-26T20:51:21.200Z,15.85
2022-08-26T20:53:47.864Z,13.80
2022-08-26T20:56:23.489Z,15.25
2022-08-26T20:58:52.453Z,14.85
2022-08-26T21:01:24.768Z,14.75
2022-08-26T21:03:52.500Z,13.73
2022-08-26T21:06:19.652Z,13.82
2022-08-26T21:08:48.335Z,13.73
2022-08-26T21:11:17.264Z,14.30
2022-08-26T21:14:04.071Z,14.98
2022-08-26T21:16:31.533Z,14.48
2022-08-26T21:18:58.291Z,14.68
2022-08-26T21:21:27.608Z,14.48
2022-08-26T21:23:54.848Z,15.15
2022-08-26T21:26:21.680Z,16.80
2022-08-26T21:28:48.768Z,16.48
2022-08-26T21:31:18.605Z,15.40
2022-08-26T21:33:45.362Z,17.02
2022-08-26T21:36:13.214Z,16.63
2022-08-26T21:38:40.828Z,17.95
2022-08-26T21:41:11.892Z,16.60
2022-08-26T21:43:39.525Z,16.35
2022-08-26T21:46:14.561Z,16.58
2022-08-26T21:48:45.726Z,16.38
2022-08-26T21:51:16.985Z,17.75
2022-08-26T21:53:43.670Z,16.38
2022-08-26T21:56:15.090Z,15.38
2022-08-26T21:58:42.118Z,17.00
2022-08-26T22:01:14.471Z,17.20
2022-08-26T22:03:46.908Z,14.90
2022-08-26T22:06:15.994Z,17.45
2022-08-26T22:08:42.688Z,16.92
2022-08-26T22:11:10.476Z,17.98
2022-08-26T22:13:39.108Z,17.77
2022-08-26T22:16:06.641Z,17.20
2022-08-26T22:18:34.322Z,18.17
2022-08-26T22:21:04.221Z,17.27
2022-08-26T22:23:31.044Z,19.70
2022-08-26T22:25:58.045Z,18.63
2022-08-26T22:28:25.102Z,18.58
2022-08-26T22:30:52.413Z,19.77
2022-08-26T22:33:19.730Z,18.10
2022-08-26T22:35:48.920Z,17.65
2022-08-26T22:38:15.962Z,16.65
2022-08-26T22:40:45.381Z,17.33
2022-08-26T22:43:12.878Z,16.67
2022-08-26T22:45:45.570Z,15.52
2022-08-26T22:48:15.551Z,16.75
2022-08-26T22:50:47.366Z,16.55
2022-08-26T22:53:16.150Z,15.57
2022-08-26T22:55:43.583Z,16.42
2022-08-26T22:58:12.487Z,16.38
2022-08-26T23:00:40.027Z,16.70
2022-08-26T23:03:07.418Z,16.52
2022-08-26T23:05:34.770Z,15.57
2022-08-26T23:08:01.824Z,15.93
2022-08-26T23:10:28.562Z,15.95
2022-08-26T23:12:55.345Z,16.90
2022-08-26T23:15:22.416Z,16.80
2022-08-26T23:17:51.374Z,16.38
2022-08-26T23:20:26.896Z,15.95
2022-08-26T23:22:54.007Z,14.75
2022-08-26T23:25:20.934Z,15.05
2022-08-26T23:27:47.777Z,14.48
2022-08-26T23:30:19.333Z,16.90
2022-08-26T23:32:45.999Z,16.20
2022-08-26T23:35:14.288Z,16.55
2022-08-26T23:37:44.095Z,15.70
2022-08-26T23:40:19.422Z,15.40
2022-08-26T23:42:46.105Z,16.83
2022-08-26T23:45:13.800Z,15.32
2022-08-26T23:47:41.246Z,15.20
2022-08-26T23:50:09.021Z,15.60
2022-08-26T23:52:54.330Z,16.05
2022-08-26T23:55:23.208Z,17.55
2022-08-26T23:57:50.374Z,15.02
